Time;durP1;ratioP1;P1;durP2;ratioP2;P2;SDS_P1;SDS_P2;PMS_P1;PMS_P2;Temp;Humidity;BMP_temperature;BMP_pressure;BME280_temperature;BME280_humidity;BME280_pressure;Samples;Min_cycle;Max_cycle;Signal;HPM_P1;HPM_P2
2022/09/23 00:02:12;;;;;;;;;;;10.30;80.50;;;;;;5049479;28;19920;-80
2022/09/23 00:04:38;;;;;;;;;;;10.30;80.70;;;;;;5062914;28;20457;-79
2022/09/23 00:07:03;;;;;;;;;;;10.30;81.20;;;;;;5072272;28;19919;-80
2022/09/23 00:09:29;;;;;;;;;;;10.30;81.00;;;;;;5054395;28;19919;-80
2022/09/23 00:11:54;;;;;;;;;;;10.30;81.30;;;;;;5074007;28;19952;-80
2022/09/23 00:14:20;;;;;;;;;;;10.30;80.90;;;;;;5054936;28;19916;-80
2022/09/23 00:16:46;;;;;;;;;;;10.40;80.80;;;;;;5053650;28;19921;-80
2022/09/23 00:19:11;;;;;;;;;;;10.40;80.70;;;;;;5060319;28;19922;-80
2022/09/23 00:21:37;;;;;;;;;;;10.30;81.10;;;;;;5068685;28;19916;-79
2022/09/23 00:24:02;;;;;;;;;;;10.30;81.00;;;;;;5070380;28;19920;-79
2022/09/23 00:26:28;;;;;;;;;;;10.30;81.60;;;;;;5049531;28;19958;-79
2022/09/23 00:28:53;;;;;;;;;;;10.30;81.10;;;;;;5072229;28;20028;-79
2022/09/23 00:31:20;;;;;;;;;;;10.40;80.50;;;;;;5056256;28;19913;-79
2022/09/23 00:33:46;;;;;;;;;;;10.30;80.90;;;;;;5072351;28;19916;-79
2022/09/23 00:36:15;;;;;;;;;;;10.20;81.20;;;;;;5064233;28;19920;-79
2022/09/23 00:38:41;;;;;;;;;;;10.30;81.50;;;;;;5053721;28;19912;-80
2022/09/23 00:41:07;;;;;;;;;;;10.30;81.30;;;;;;5073135;28;19916;-80
2022/09/23 00:43:36;;;;;;;;;;;10.30;81.10;;;;;;5056560;28;19920;-80
2022/09/23 00:46:02;;;;;;;;;;;10.30;80.90;;;;;;5061106;28;20328;-80
2022/09/23 00:48:27;;;;;;;;;;;10.30;81.00;;;;;;5077173;28;19919;-80
2022/09/23 00:50:53;;;;;;;;;;;10.40;81.00;;;;;;5061593;22;19968;-76
2022/09/23 00:53:21;;;;;;;;;;;10.40;81.00;;;;;;5089210;28;19913;-75
2022/09/23 00:55:49;;;;;;;;;;;10.50;80.60;;;;;;5081797;28;19928;-75
2022/09/23 00:58:16;;;;;;;;;;;10.50;81.30;;;;;;5107806;28;19919;-76
2022/09/23 01:00:42;;;;;;;;;;;10.50;81.30;;;;;;5080461;28;20022;-77
2022/09/23 01:03:08;;;;;;;;;;;10.50;81.40;;;;;;5080554;28;20409;-76
2022/09/23 01:05:35;;;;;;;;;;;10.60;81.40;;;;;;5079905;28;19943;-77
2022/09/23 01:08:01;;;;;;;;;;;10.60;81.40;;;;;;5059438;28;19952;-76
2022/09/23 01:10:34;;;;;;;;;;;10.60;81.30;;;;;;5060066;28;19935;-76
2022/09/23 01:13:26;;;;;;;;;;;10.60;81.50;;;;;;5058540;28;19917;-76
2022/09/23 01:16:15;;;;;;;;;;;10.60;81.20;;;;;;5065893;28;19928;-76
2022/09/23 01:18:52;;;;;;;;;;;10.60;80.80;;;;;;5048431;28;20326;-77
2022/09/23 01:21:17;;;;;;;;;;;10.60;80.90;;;;;;5052270;28;19928;-75
2022/09/23 01:23:42;;;;;;;;;;;10.60;80.60;;;;;;5069925;28;20050;-76
2022/09/23 01:26:18;;;;;;;;;;;10.70;80.20;;;;;;5045049;28;20300;-76
2022/09/23 01:28:43;;;;;;;;;;;10.70;80.30;;;;;;5070445;28;20444;-76
2022/09/23 01:31:15;;;;;;;;;;;10.70;80.50;;;;;;5064603;28;19952;-77
2022/09/23 01:33:57;;;;;;;;;;;10.70;79.80;;;;;;5066742;28;19912;-76
2022/09/23 01:36:41;;;;;;;;;;;10.60;80.30;;;;;;5071474;28;19975;-77
2022/09/23 01:39:26;;;;;;;;;;;10.70;80.00;;;;;;5065383;28;19919;-76
2022/09/23 01:41:55;;;;;;;;;;;10.60;80.60;;;;;;5062436;28;20334;-76
2022/09/23 01:44:24;;;;;;;;;;;10.60;80.40;;;;;;5045605;28;20086;-76
2022/09/23 01:47:05;;;;;;;;;;;10.60;80.20;;;;;;5052233;28;19995;-76
2022/09/23 01:49:57;;;;;;;;;;;10.60;80.00;;;;;;5057100;28;19912;-77
2022/09/23 01:52:28;;;;;;;;;;;10.60;79.80;;;;;;5035902;28;19948;-75
2022/09/23 01:54:53;;;;;;;;;;;10.60;79.90;;;;;;5059571;28;19909;-76
2022/09/23 01:57:31;;;;;;;;;;;10.70;79.70;;;;;;5056907;28;19920;-75
2022/09/23 02:00:04;;;;;;;;;;;10.70;80.10;;;;;;5062869;28;19913;-75
2022/09/23 02:02:31;;;;;;;;;;;10.70;80.10;;;;;;5046666;28;19927;-77
2022/09/23 02:05:01;;;;;;;;;;;10.70;79.80;;;;;;5071266;28;19912;-76
2022/09/23 02:07:29;;;;;;;;;;;10.70;79.70;;;;;;5071556;28;20010;-76
2022/09/23 02:10:24;;;;;;;;;;;10.70;80.00;;;;;;5072068;28;20008;-76
2022/09/23 02:12:51;;;;;;;;;;;10.70;80.10;;;;;;5024064;28;20327;-76
2022/09/23 02:15:19;;;;;;;;;;;10.70;79.80;;;;;;5065219;28;19916;-76
2022/09/23 02:17:54;;;;;;;;;;;10.70;79.30;;;;;;5063347;28;19913;-77
2022/09/23 02:20:31;;;;;;;;;;;10.70;78.70;;;;;;5070635;28;19923;-76
2022/09/23 02:23:03;;;;;;;;;;;10.70;78.50;;;;;;5064645;28;20381;-77
2022/09/23 02:25:34;;;;;;;;;;;10.80;78.50;;;;;;5059017;28;19913;-76
2022/09/23 02:28:06;;;;;;;;;;;10.80;78.60;;;;;;5069478;28;19916;-76
2022/09/23 02:30:37;;;;;;;;;;;10.80;78.10;;;;;;5088884;28;20003;-76
2022/09/23 02:33:10;;;;;;;;;;;10.80;78.00;;;;;;5073916;28;20288;-76
2022/09/23 02:35:39;;;;;;;;;;;10.80;78.20;;;;;;5076031;28;19966;-75
2022/09/23 02:38:04;;;;;;;;;;;10.80;77.90;;;;;;5073239;28;19908;-76
2022/09/23 02:40:49;;;;;;;;;;;10.80;78.10;;;;;;5073516;28;19939;-76
2022/09/23 02:43:21;;;;;;;;;;;10.80;78.40;;;;;;5061767;28;19913;-76
2022/09/23 02:45:47;;;;;;;;;;;10.90;78.70;;;;;;5072830;28;19908;-76
2022/09/23 02:48:17;;;;;;;;;;;10.80;78.00;;;;;;5068017;28;19919;-77
2022/09/23 02:50:43;;;;;;;;;;;10.90;77.90;;;;;;5045594;28;20262;-77
2022/09/23 02:53:09;;;;;;;;;;;10.90;77.90;;;;;;5073260;28;20020;-76
2022/09/23 02:55:34;;;;;;;;;;;10.90;77.20;;;;;;5074159;28;19928;-77
2022/09/23 02:58:01;;;;;;;;;;;10.90;77.30;;;;;;5073451;28;19970;-77
2022/09/23 03:00:38;;;;;;;;;;;10.90;77.80;;;;;;5073570;28;19909;-77
2022/09/23 03:03:30;;;;;;;;;;;10.80;78.30;;;;;;5066538;28;20034;-77
2022/09/23 03:05:56;;;;;;;;;;;10.80;77.80;;;;;;5071409;28;19908;-77
2022/09/23 03:08:40;;;;;;;;;;;10.80;78.20;;;;;;5047377;28;20308;-77
2022/09/23 03:11:07;;;;;;;;;;;10.80;78.00;;;;;;5048288;28;19908;-76
2022/09/23 03:13:55;;;;;;;;;;;10.80;77.50;;;;;;5072388;28;19916;-76
2022/09/23 03:16:24;;;;;;;;;;;10.80;77.40;;;;;;5048950;28;20036;-77
2022/09/23 03:18:56;;;;;;;;;;;10.80;78.10;;;;;;5045712;28;20371;-76
2022/09/23 03:21:24;;;;;;;;;;;10.80;78.40;;;;;;5067048;28;19928;-76
2022/09/23 03:23:49;;;;;;;;;;;10.80;78.00;;;;;;5082306;28;19912;-77
2022/09/23 03:26:19;;;;;;;;;;;10.80;77.80;;;;;;5067985;28;20476;-76
2022/09/23 03:28:45;;;;;;;;;;;10.80;77.50;;;;;;5058931;28;19917;-76
2022/09/23 03:31:11;;;;;;;;;;;10.90;76.60;;;;;;5052789;28;19916;-76
2022/09/23 03:33:39;;;;;;;;;;;10.90;76.60;;;;;;5051736;28;19924;-76
2022/09/23 03:38:55;;;;;;;;;;;11.00;75.90;;;;;;5059588;28;20041;-77
2022/09/23 03:41:31;;;;;;;;;;;11.00;75.40;;;;;;5065073;28;19913;-76
2022/09/23 03:43:58;;;;;;;;;;;11.00;75.50;;;;;;5074375;28;19919;-76
2022/09/23 03:46:26;;;;;;;;;;;10.90;75.20;;;;;;5052296;28;19916;-76
2022/09/23 03:48:51;;;;;;;;;;;10.90;75.60;;;;;;5068866;28;20368;-76
2022/09/23 03:51:22;;;;;;;;;;;10.90;75.60;;;;;;5059226;28;19962;-76
2022/09/23 03:53:48;;;;;;;;;;;10.90;75.30;;;;;;5080646;28;20066;-76
2022/09/23 03:56:14;;;;;;;;;;;10.90;75.20;;;;;;5043914;28;20059;-76
2022/09/23 03:58:39;;;;;;;;;;;10.90;75.30;;;;;;5075598;28;19921;-77
2022/09/23 04:01:05;;;;;;;;;;;10.90;75.30;;;;;;5056768;28;19958;-76
2022/09/23 04:03:30;;;;;;;;;;;10.90;75.60;;;;;;5068161;28;19916;-77
2022/09/23 04:05:56;;;;;;;;;;;11.00;75.20;;;;;;5068421;28;20373;-76
2022/09/23 04:08:21;;;;;;;;;;;11.00;75.10;;;;;;5074969;28;19920;-75
2022/09/23 04:10:46;;;;;;;;;;;11.00;74.90;;;;;;5060852;28;20377;-77
2022/09/23 04:13:12;;;;;;;;;;;11.00;75.00;;;;;;5048201;28;19952;-76
2022/09/23 04:15:39;;;;;;;;;;;11.00;74.90;;;;;;5075052;28;19917;-76
2022/09/23 04:18:05;;;;;;;;;;;10.90;74.70;;;;;;5068924;28;20380;-77
2022/09/23 04:20:30;;;;;;;;;;;11.00;74.00;;;;;;5076075;28;19942;-76
2022/09/23 04:22:55;;;;;;;;;;;11.00;74.50;;;;;;5046275;28;19919;-77
2022/09/23 04:25:21;;;;;;;;;;;11.10;74.10;;;;;;5065552;28;19928;-76
2022/09/23 04:27:46;;;;;;;;;;;11.00;73.70;;;;;;5067327;28;19921;-76
2022/09/23 04:30:12;;;;;;;;;;;11.10;73.30;;;;;;5055709;28;19913;-75
2022/09/23 04:32:38;;;;;;;;;;;11.10;72.60;;;;;;5063700;28;19916;-77
2022/09/23 04:35:03;;;;;;;;;;;11.10;72.70;;;;;;5047794;28;19919;-77
2022/09/23 04:37:29;;;;;;;;;;;11.20;73.20;;;;;;5069389;28;20038;-76
2022/09/23 04:39:55;;;;;;;;;;;11.10;73.00;;;;;;5068108;28;19952;-75
2022/09/23 04:42:21;;;;;;;;;;;11.20;72.70;;;;;;5054922;28;19918;-76
2022/09/23 04:44:46;;;;;;;;;;;11.20;72.30;;;;;;5048554;28;19946;-77
2022/09/23 04:47:11;;;;;;;;;;;11.20;73.30;;;;;;5051583;28;19964;-76
2022/09/23 04:49:37;;;;;;;;;;;11.10;73.40;;;;;;5073807;28;19913;-76
2022/09/23 04:52:04;;;;;;;;;;;11.10;73.70;;;;;;5074708;28;19922;-76
2022/09/23 04:54:30;;;;;;;;;;;11.00;74.00;;;;;;5052302;28;19916;-77
2022/09/23 04:56:55;;;;;;;;;;;11.00;74.70;;;;;;5071016;28;20023;-76
2022/09/23 04:59:21;;;;;;;;;;;11.00;74.60;;;;;;5078134;28;20810;-77
2022/09/23 05:01:46;;;;;;;;;;;10.90;74.30;;;;;;5065210;28;19948;-77
2022/09/23 05:04:14;;;;;;;;;;;10.90;74.20;;;;;;5071693;28;19913;-76
2022/09/23 05:06:42;;;;;;;;;;;10.90;74.30;;;;;;5077179;28;19936;-77
2022/09/23 05:09:09;;;;;;;;;;;10.90;74.30;;;;;;5055583;28;20035;-76
2022/09/23 05:11:34;;;;;;;;;;;10.90;74.60;;;;;;5053711;28;19916;-76
2022/09/23 05:14:00;;;;;;;;;;;10.90;75.00;;;;;;5086444;28;21058;-78
2022/09/23 05:16:26;;;;;;;;;;;11.00;73.80;;;;;;5046878;28;19920;-76
2022/09/23 05:18:51;;;;;;;;;;;11.00;73.60;;;;;;5051151;28;19916;-76
2022/09/23 05:21:18;;;;;;;;;;;11.10;72.60;;;;;;5047847;28;19956;-77
2022/09/23 05:23:53;;;;;;;;;;;11.10;72.60;;;;;;5073566;28;20468;-77
2022/09/23 05:26:19;;;;;;;;;;;11.10;72.20;;;;;;5053622;28;19943;-77
2022/09/23 05:28:45;;;;;;;;;;;11.10;72.30;;;;;;5065884;28;20281;-80
2022/09/23 05:31:13;;;;;;;;;;;11.10;72.40;;;;;;5057072;28;21440;-77
2022/09/23 05:33:39;;;;;;;;;;;11.10;72.60;;;;;;5057120;28;19991;-77
2022/09/23 05:36:05;;;;;;;;;;;11.20;71.90;;;;;;5056912;28;19913;-77
2022/09/23 05:38:30;;;;;;;;;;;11.20;71.70;;;;;;5065141;28;20377;-77
2022/09/23 05:41:00;;;;;;;;;;;11.20;71.80;;;;;;5055767;28;19960;-79
2022/09/23 05:43:26;;;;;;;;;;;11.30;72.10;;;;;;5065611;28;20338;-76
2022/09/23 05:46:03;;;;;;;;;;;11.20;72.00;;;;;;5068984;28;19928;-77
2022/09/23 05:48:30;;;;;;;;;;;11.30;72.00;;;;;;5040453;28;20008;-77
2022/09/23 05:50:55;;;;;;;;;;;11.10;72.70;;;;;;5071506;28;19917;-78
2022/09/23 05:53:21;;;;;;;;;;;11.10;72.90;;;;;;5051257;28;19927;-76
2022/09/23 05:55:46;;;;;;;;;;;11.20;72.40;;;;;;5063585;28;19916;-77
2022/09/23 05:58:12;;;;;;;;;;;11.20;72.00;;;;;;5062906;28;19935;-77
2022/09/23 06:00:41;;;;;;;;;;;11.20;72.00;;;;;;5054471;28;19920;-77
2022/09/23 06:03:17;;;;;;;;;;;11.10;72.30;;;;;;5074423;28;19922;-78
2022/09/23 06:05:43;;;;;;;;;;;11.20;72.00;;;;;;5085044;28;19916;-78
2022/09/23 06:08:09;;;;;;;;;;;11.20;72.30;;;;;;5086997;28;19938;-78
2022/09/23 06:10:37;;;;;;;;;;;11.30;72.00;;;;;;5092940;28;19974;-79
2022/09/23 06:13:03;;;;;;;;;;;11.40;71.80;;;;;;5083597;28;19994;-77
2022/09/23 06:15:28;;;;;;;;;;;11.40;71.70;;;;;;5048842;28;19956;-78
2022/09/23 06:17:53;;;;;;;;;;;11.50;71.20;;;;;;5064648;28;19921;-79
2022/09/23 06:20:19;;;;;;;;;;;11.50;71.30;;;;;;5072700;28;19923;-78
2022/09/23 06:22:44;;;;;;;;;;;11.50;71.40;;;;;;5083587;28;19918;-79
2022/09/23 06:25:11;;;;;;;;;;;11.60;70.70;;;;;;5069074;28;19912;-79
2022/09/23 06:27:36;;;;;;;;;;;11.60;71.70;;;;;;5069589;28;19913;-77
2022/09/23 06:30:03;;;;;;;;;;;11.60;71.10;;;;;;5081091;28;19921;-78
2022/09/23 06:32:28;;;;;;;;;;;11.80;69.90;;;;;;5046612;28;19917;-79
2022/09/23 06:34:54;;;;;;;;;;;11.90;69.70;;;;;;5075821;28;19913;-80
2022/09/23 06:37:19;;;;;;;;;;;11.80;70.10;;;;;;5077462;28;19912;-79
2022/09/23 06:39:45;;;;;;;;;;;11.80;70.70;;;;;;5074010;28;19951;-79
2022/09/23 06:42:10;;;;;;;;;;;11.90;70.30;;;;;;5071629;28;19920;-79
2022/09/23 06:44:36;;;;;;;;;;;11.90;70.70;;;;;;5079144;28;19916;-78
2022/09/23 06:47:01;;;;;;;;;;;11.90;70.50;;;;;;5073372;28;19917;-79
2022/09/23 06:49:27;;;;;;;;;;;12.00;70.40;;;;;;5051867;28;19940;-79
2022/09/23 06:51:54;;;;;;;;;;;12.00;70.40;;;;;;5084685;22;19992;-81
2022/09/23 06:54:20;;;;;;;;;;;12.10;70.50;;;;;;5076613;28;19958;-84
2022/09/23 06:56:46;;;;;;;;;;;12.10;71.10;;;;;;5091078;28;19932;-82
2022/09/23 06:59:14;;;;;;;;;;;12.20;70.60;;;;;;5069230;28;19913;-83
2022/09/23 07:01:40;;;;;;;;;;;12.30;70.00;;;;;;5072213;28;19912;-83
2022/09/23 07:04:06;;;;;;;;;;;12.40;70.10;;;;;;5073922;28;20421;-82
2022/09/23 07:06:31;;;;;;;;;;;12.60;69.00;;;;;;5063217;28;20003;-82
2022/09/23 07:08:57;;;;;;;;;;;12.70;69.50;;;;;;5088582;28;19972;-83
2022/09/23 07:11:22;;;;;;;;;;;12.90;67.80;;;;;;5068008;28;19951;-83
2022/09/23 07:13:48;;;;;;;;;;;13.10;67.80;;;;;;5086098;28;19920;-83
2022/09/23 07:16:13;;;;;;;;;;;13.20;66.70;;;;;;5068855;28;19924;-83
2022/09/23 07:18:39;;;;;;;;;;;13.10;66.80;;;;;;5070527;28;19927;-82
2022/09/23 07:21:10;;;;;;;;;;;13.30;66.50;;;;;;5090644;28;19912;-82
2022/09/23 07:23:36;;;;;;;;;;;13.30;65.80;;;;;;5066133;28;19912;-83
2022/09/23 07:26:08;;;;;;;;;;;13.50;66.50;;;;;;5083531;28;20029;-84
2022/09/23 07:28:35;;;;;;;;;;;13.60;65.30;;;;;;5084603;28;20379;-83
2022/09/23 07:31:08;;;;;;;;;;;13.80;65.20;;;;;;5086878;28;19925;-84
2022/09/23 07:33:38;;;;;;;;;;;14.00;64.80;;;;;;5082486;28;19915;-81
2022/09/23 07:36:07;;;;;;;;;;;14.00;65.70;;;;;;5083645;28;21275;-83
2022/09/23 07:38:32;;;;;;;;;;;14.20;64.60;;;;;;5067307;28;19958;-83
2022/09/23 07:41:08;;;;;;;;;;;14.10;65.90;;;;;;5085797;28;19949;-84
2022/09/23 07:43:34;;;;;;;;;;;14.00;65.70;;;;;;5096775;28;20367;-85
2022/09/23 07:46:01;;;;;;;;;;;14.10;66.30;;;;;;5114473;28;19918;-84
2022/09/23 07:48:28;;;;;;;;;;;14.10;66.60;;;;;;5082610;28;19947;-83
2022/09/23 07:50:54;;;;;;;;;;;14.10;66.10;;;;;;5081776;28;20370;-84
2022/09/23 07:53:19;;;;;;;;;;;14.30;65.20;;;;;;5076691;28;20002;-84
2022/09/23 07:55:50;;;;;;;;;;;14.20;65.50;;;;;;5077331;28;20011;-83
2022/09/23 07:58:16;;;;;;;;;;;14.40;64.70;;;;;;5088942;28;19912;-84
2022/09/23 08:00:41;;;;;;;;;;;14.40;65.30;;;;;;5090604;28;19927;-82
2022/09/23 08:03:08;;;;;;;;;;;14.40;66.50;;;;;;5081168;28;19920;-82
2022/09/23 08:05:34;;;;;;;;;;;14.50;64.70;;;;;;5071386;28;19931;-80
2022/09/23 08:07:59;;;;;;;;;;;14.50;66.50;;;;;;5079814;28;19911;-83
2022/09/23 08:10:27;;;;;;;;;;;14.50;66.40;;;;;;5085498;28;19914;-85
2022/09/23 08:12:53;;;;;;;;;;;14.50;67.30;;;;;;5071765;28;19955;-83
2022/09/23 08:15:21;;;;;;;;;;;14.70;66.20;;;;;;5065131;28;19935;-84
2022/09/23 08:17:47;;;;;;;;;;;14.70;66.50;;;;;;5069310;28;19925;-84
2022/09/23 08:20:42;;;;;;;;;;;14.90;65.80;;;;;;5080626;28;19920;-80
2022/09/23 08:22:58;;;;;;;;;;;15.10;65.00;;;;;;5085983;28;19912;-83
2022/09/23 08:25:24;;;;;;;;;;;15.10;65.70;;;;;;5092534;28;19923;-81
2022/09/23 08:27:50;;;;;;;;;;;15.50;64.30;;;;;;5085104;28;19920;-82
2022/09/23 08:30:16;;;;;;;;;;;15.50;65.40;;;;;;5066611;28;19912;-79
2022/09/23 08:32:41;;;;;;;;;;;15.50;65.30;;;;;;5083513;28;20449;-80
2022/09/23 08:35:07;;;;;;;;;;;15.60;64.60;;;;;;5083779;28;19916;-80
2022/09/23 08:37:32;;;;;;;;;;;15.60;64.90;;;;;;5070100;28;20386;-79
2022/09/23 08:39:58;;;;;;;;;;;15.60;62.20;;;;;;5071347;28;19947;-82
2022/09/23 08:42:28;;;;;;;;;;;15.60;62.80;;;;;;5066015;28;19924;-82
2022/09/23 08:44:55;;;;;;;;;;;15.80;62.50;;;;;;5082954;28;19964;-81
2022/09/23 08:47:25;;;;;;;;;;;15.90;62.10;;;;;;5076831;28;19919;-80
2022/09/23 08:49:56;;;;;;;;;;;16.00;61.00;;;;;;5087526;28;19915;-82
2022/09/23 08:52:26;;;;;;;;;;;16.00;62.80;;;;;;5069808;28;19989;-81
2022/09/23 08:54:51;;;;;;;;;;;16.00;63.10;;;;;;5088533;28;19916;-81
2022/09/23 08:57:26;;;;;;;;;;;16.10;61.70;;;;;;5095491;28;20050;-81
2022/09/23 08:59:51;;;;;;;;;;;16.00;61.30;;;;;;5061968;28;19939;-80
2022/09/23 09:02:18;;;;;;;;;;;16.00;62.30;;;;;;5094165;28;20282;-82
2022/09/23 09:04:44;;;;;;;;;;;16.10;61.50;;;;;;5098459;28;20616;-81
2022/09/23 09:07:16;;;;;;;;;;;16.10;60.20;;;;;;5099329;28;19916;-82
2022/09/23 09:09:43;;;;;;;;;;;16.10;60.70;;;;;;5068377;28;19998;-83
2022/09/23 09:12:24;;;;;;;;;;;16.10;61.40;;;;;;5081297;28;20026;-81
2022/09/23 09:15:05;;;;;;;;;;;16.30;62.10;;;;;;5085892;28;20151;-80
2022/09/23 09:17:37;;;;;;;;;;;16.50;61.50;;;;;;5080346;28;20025;-83
2022/09/23 09:20:04;;;;;;;;;;;16.40;60.90;;;;;;5093647;28;20354;-82
2022/09/23 09:22:33;;;;;;;;;;;16.40;59.90;;;;;;5087162;28;20635;-81
2022/09/23 09:25:02;;;;;;;;;;;16.50;60.60;;;;;;5070531;28;19995;-84
2022/09/23 09:27:28;;;;;;;;;;;16.50;59.20;;;;;;5106807;28;19912;-84
2022/09/23 09:29:54;;;;;;;;;;;16.50;59.50;;;;;;5095382;28;19908;-82
2022/09/23 09:32:25;;;;;;;;;;;16.60;59.10;;;;;;5095878;28;19916;-82
2022/09/23 09:34:54;;;;;;;;;;;16.70;59.10;;;;;;5098698;28;20234;-82
2022/09/23 09:37:26;;;;;;;;;;;16.90;57.60;;;;;;5068271;28;19916;-83
2022/09/23 09:39:51;;;;;;;;;;;16.80;57.70;;;;;;5090996;28;19912;-82
2022/09/23 09:42:25;;;;;;;;;;;16.80;57.40;;;;;;5085406;28;19921;-82
2022/09/23 09:44:54;;;;;;;;;;;16.80;57.20;;;;;;5103256;28;19966;-81
2022/09/23 09:47:39;;;;;;;;;;;16.80;57.20;;;;;;5090477;28;19923;-83
2022/09/23 09:50:20;;;;;;;;;;;16.80;57.30;;;;;;5065458;28;20274;-83
2022/09/23 09:52:47;;;;;;;;;;;16.90;57.10;;;;;;5077250;28;19920;-82
2022/09/23 09:55:12;;;;;;;;;;;16.90;56.70;;;;;;5068073;28;19991;-83
2022/09/23 09:57:47;;;;;;;;;;;17.00;57.10;;;;;;5092402;28;19951;-82
2022/09/23 10:00:18;;;;;;;;;;;16.80;57.40;;;;;;5085278;28;19943;-83
2022/09/23 10:02:43;;;;;;;;;;;16.80;56.40;;;;;;5063657;28;20283;-83
2022/09/23 10:05:22;;;;;;;;;;;17.00;56.60;;;;;;5073587;28;19912;-83
2022/09/23 10:07:48;;;;;;;;;;;17.00;55.80;;;;;;5073162;28;20456;-85
2022/09/23 10:10:19;;;;;;;;;;;17.10;57.00;;;;;;5070900;28;20003;-83
2022/09/23 10:12:46;;;;;;;;;;;17.00;55.90;;;;;;5085501;28;20015;-84
2022/09/23 10:18:42;;;;;;;;;;;17.20;55.50;;;;;;5043275;28;19916;-89
2022/09/23 10:24:46;;;;;;;;;;;17.30;53.40;;;;;;5088115;28;19916;-91
2022/09/23 10:27:44;;;;;;;;;;;17.30;53.60;;;;;;5057961;28;19915;-89
2022/09/23 10:30:38;;;;;;;;;;;17.50;54.50;;;;;;5036998;28;19927;-87
2022/09/23 10:36:18;;;;;;;;;;;17.50;52.90;;;;;;5030663;28;19921;-84
2022/09/23 10:38:52;;;;;;;;;;;17.60;53.40;;;;;;5014158;28;19924;-86
2022/09/23 10:47:40;;;;;;;;;;;17.70;54.90;;;;;;5087975;28;20405;-85
2022/09/23 10:50:24;;;;;;;;;;;17.80;55.20;;;;;;5083112;28;20290;-85
2022/09/23 10:53:19;;;;;;;;;;;17.90;52.70;;;;;;5069987;28;19920;-89
2022/09/23 10:55:50;;;;;;;;;;;18.00;52.90;;;;;;5025906;28;19912;-82
2022/09/23 10:58:20;;;;;;;;;;;18.10;54.60;;;;;;5082598;28;19912;-83
2022/09/23 11:00:45;;;;;;;;;;;18.10;55.20;;;;;;5093022;28;19912;-85
2022/09/23 11:03:14;;;;;;;;;;;18.10;53.50;;;;;;5060784;28;19920;-83
2022/09/23 11:05:55;;;;;;;;;;;18.20;51.40;;;;;;5061782;28;19916;-82
2022/09/23 11:08:39;;;;;;;;;;;18.20;53.70;;;;;;5072707;28;20671;-82
2022/09/23 11:11:17;;;;;;;;;;;18.20;54.70;;;;;;5069696;28;20375;-82
2022/09/23 11:13:43;;;;;;;;;;;18.20;53.30;;;;;;5085984;28;20003;-85
2022/09/23 11:16:14;;;;;;;;;;;18.20;53.00;;;;;;5068149;28;20001;-83
2022/09/23 11:18:58;;;;;;;;;;;18.10;52.50;;;;;;5088854;28;19920;-85
2022/09/23 11:21:43;;;;;;;;;;;18.10;51.90;;;;;;5059400;28;19933;-85
2022/09/23 11:24:27;;;;;;;;;;;18.20;52.40;;;;;;5085832;28;19912;-85
2022/09/23 11:30:54;;;;;;;;;;;;;;;;;;;;;
2022/09/23 11:33:20;;;;;;;;;;;18.10;53.00;;;;;;5047126;28;19942;-85
2022/09/23 11:35:49;;;;;;;;;;;18.10;52.20;;;;;;5081328;28;20430;-85
2022/09/23 11:38:44;;;;;;;;;;;18.20;52.40;;;;;;5082105;28;19912;-87
2022/09/23 11:41:13;;;;;;;;;;;18.40;52.30;;;;;;5058186;28;19923;-85
2022/09/23 11:43:41;;;;;;;;;;;18.30;52.10;;;;;;5082554;28;19918;-85
2022/09/23 11:46:13;;;;;;;;;;;18.40;52.90;;;;;;5076211;28;19935;-85
2022/09/23 11:48:46;;;;;;;;;;;18.40;51.20;;;;;;5074813;28;19954;-85
2022/09/23 11:51:14;;;;;;;;;;;18.40;51.60;;;;;;5125832;28;19912;-87
2022/09/23 11:53:48;;;;;;;;;;;18.50;52.20;;;;;;5069350;28;20115;-86
2022/09/23 11:56:14;;;;;;;;;;;18.40;50.20;;;;;;5084252;28;20394;-85
2022/09/23 11:58:45;;;;;;;;;;;18.40;50.80;;;;;;5067515;28;19923;-86
2022/09/23 12:01:14;;;;;;;;;;;18.50;51.20;;;;;;5065018;28;20005;-86
2022/09/23 12:03:48;;;;;;;;;;;18.50;50.30;;;;;;5087601;28;20034;-86
2022/09/23 12:06:20;;;;;;;;;;;18.70;50.30;;;;;;5085873;28;20390;-86
2022/09/23 12:08:46;;;;;;;;;;;18.80;49.70;;;;;;5059242;28;20028;-85
2022/09/23 12:11:17;;;;;;;;;;;18.80;49.10;;;;;;5086226;28;19919;-85
2022/09/23 12:14:01;;;;;;;;;;;18.90;49.20;;;;;;5067314;28;19989;-84
2022/09/23 12:16:47;;;;;;;;;;;19.00;48.10;;;;;;5076643;28;19919;-85
2022/09/23 12:19:18;;;;;;;;;;;19.10;48.00;;;;;;5034115;28;19919;-84
2022/09/23 12:22:04;;;;;;;;;;;19.10;48.40;;;;;;5073429;28;19919;-84
2022/09/23 12:24:53;;;;;;;;;;;19.20;49.80;;;;;;5064652;28;20002;-84
2022/09/23 12:27:26;;;;;;;;;;;19.10;47.50;;;;;;5074358;28;19920;-84
2022/09/23 12:29:57;;;;;;;;;;;19.20;49.00;;;;;;5092904;28;19909;-84
2022/09/23 12:32:23;;;;;;;;;;;19.10;47.70;;;;;;5087763;28;20061;-84
2022/09/23 12:34:50;;;;;;;;;;;19.10;47.70;;;;;;5089024;28;19911;-85
2022/09/23 12:37:26;;;;;;;;;;;19.40;49.30;;;;;;5096492;28;19908;-85
2022/09/23 12:39:52;;;;;;;;;;;19.40;48.60;;;;;;5081134;28;19912;-81
2022/09/23 12:42:19;;;;;;;;;;;19.30;48.70;;;;;;5090162;28;19926;-85
2022/09/23 12:44:46;;;;;;;;;;;19.40;48.80;;;;;;5085508;28;19991;-88
2022/09/23 12:47:23;;;;;;;;;;;19.30;48.30;;;;;;5070290;28;19920;-84
2022/09/23 12:49:51;;;;;;;;;;;19.40;47.10;;;;;;5061013;28;20633;-81
2022/09/23 12:52:16;;;;;;;;;;;19.60;47.40;;;;;;5104274;22;19981;-86
2022/09/23 12:54:43;;;;;;;;;;;19.50;47.80;;;;;;5067025;28;19920;-81
2022/09/23 12:57:29;;;;;;;;;;;19.30;46.10;;;;;;5060332;28;19908;-82
2022/09/23 12:59:56;;;;;;;;;;;19.20;46.40;;;;;;5079434;28;19969;-81
2022/09/23 13:02:26;;;;;;;;;;;19.20;45.00;;;;;;5087175;28;20358;-82
2022/09/23 13:07:44;;;;;;;;;;;19.20;45.90;;;;;;5091435;28;19934;-83
2022/09/23 13:10:14;;;;;;;;;;;19.30;45.50;;;;;;5064375;28;19961;-83
2022/09/23 13:12:41;;;;;;;;;;;19.20;46.60;;;;;;5061966;28;19991;-83
2022/09/23 13:15:14;;;;;;;;;;;19.20;46.10;;;;;;5089356;28;19912;-83
2022/09/23 13:17:39;;;;;;;;;;;19.20;45.20;;;;;;5065232;28;19912;-86
2022/09/23 13:20:25;;;;;;;;;;;19.10;44.70;;;;;;5069368;28;20053;-86
2022/09/23 13:22:50;;;;;;;;;;;19.10;45.00;;;;;;5071568;28;20322;-86
2022/09/23 13:25:21;;;;;;;;;;;19.30;45.60;;;;;;5070165;28;19912;-85
2022/09/23 13:27:49;;;;;;;;;;;19.20;45.60;;;;;;5086545;28;19944;-85
2022/09/23 13:30:15;;;;;;;;;;;19.20;46.20;;;;;;5068134;28;19912;-86
2022/09/23 13:32:44;;;;;;;;;;;19.30;45.20;;;;;;5070965;28;19924;-86
2022/09/23 13:35:13;;;;;;;;;;;19.20;44.80;;;;;;5089306;28;19915;-85
2022/09/23 13:37:46;;;;;;;;;;;19.20;43.70;;;;;;5056182;28;19912;-85
2022/09/23 13:40:14;;;;;;;;;;;19.20;44.90;;;;;;5065898;28;19965;-84
2022/09/23 13:42:40;;;;;;;;;;;19.10;45.30;;;;;;5085180;28;19916;-84
2022/09/23 13:45:12;;;;;;;;;;;19.10;45.30;;;;;;5093623;28;19919;-84
2022/09/23 13:47:40;;;;;;;;;;;19.00;45.40;;;;;;5101510;28;19908;-82
2022/09/23 13:50:11;;;;;;;;;;;19.00;45.50;;;;;;5081518;28;19901;-82
2022/09/23 13:52:37;;;;;;;;;;;19.00;45.80;;;;;;5089592;28;19938;-81
2022/09/23 13:55:02;;;;;;;;;;;18.90;46.60;;;;;;5092921;28;19913;-82
2022/09/23 13:57:29;;;;;;;;;;;19.00;46.10;;;;;;5072881;28;19909;-82
2022/09/23 14:00:14;;;;;;;;;;;18.90;45.60;;;;;;5090109;28;19947;-82
2022/09/23 14:02:42;;;;;;;;;;;18.80;46.00;;;;;;5071933;28;19908;-83
2022/09/23 14:05:25;;;;;;;;;;;18.80;45.90;;;;;;5081459;28;19905;-82
2022/09/23 14:07:51;;;;;;;;;;;18.80;45.90;;;;;;5114099;28;19900;-81
2022/09/23 14:10:18;;;;;;;;;;;18.80;46.30;;;;;;5092698;28;19912;-83
2022/09/23 14:12:45;;;;;;;;;;;18.70;46.60;;;;;;5073148;28;19983;-83
2022/09/23 14:15:14;;;;;;;;;;;18.70;46.50;;;;;;5090214;28;19919;-82
2022/09/23 14:17:44;;;;;;;;;;;18.60;47.50;;;;;;5074792;28;20039;-83
2022/09/23 14:20:13;;;;;;;;;;;18.60;47.70;;;;;;5099662;28;20347;-82
2022/09/23 14:22:39;;;;;;;;;;;18.60;47.80;;;;;;5068253;28;19909;-83
2022/09/23 14:25:11;;;;;;;;;;;18.60;47.90;;;;;;5086797;28;19944;-83
2022/09/23 14:27:36;;;;;;;;;;;18.60;47.40;;;;;;5093867;28;19912;-83
2022/09/23 14:30:02;;;;;;;;;;;18.60;48.20;;;;;;5092196;28;19922;-82
2022/09/23 14:32:28;;;;;;;;;;;18.60;47.90;;;;;;5085266;28;19923;-83
2022/09/23 14:35:03;;;;;;;;;;;18.70;47.30;;;;;;5070569;28;19912;-82
2022/09/23 14:40:46;;;;;;;;;;;18.70;47.70;;;;;;5101943;28;19923;-82
2022/09/23 14:43:14;;;;;;;;;;;18.60;48.50;;;;;;5078082;28;19907;-82
2022/09/23 14:45:42;;;;;;;;;;;18.60;48.60;;;;;;5093654;28;19954;-82
2022/09/23 14:48:09;;;;;;;;;;;18.60;48.50;;;;;;5090565;28;19927;-82
2022/09/23 14:50:47;;;;;;;;;;;18.60;48.80;;;;;;5090604;28;19912;-83
2022/09/23 14:53:15;;;;;;;;;;;18.50;48.80;;;;;;5106619;28;19943;-83
2022/09/23 14:55:41;;;;;;;;;;;18.50;48.90;;;;;;5074154;28;19917;-82
2022/09/23 14:58:12;;;;;;;;;;;18.40;49.00;;;;;;5088369;28;20290;-84
2022/09/23 15:00:37;;;;;;;;;;;18.50;49.10;;;;;;5086858;28;19948;-83
2022/09/23 15:03:10;;;;;;;;;;;18.50;49.60;;;;;;5089209;28;20263;-84